Time;durP1;ratioP1;P1;durP2;ratioP2;P2;SDS_P1;SDS_P2;PMS_P1;PMS_P2;Temp;Humidity;BMP_temperature;BMP_pressure;BME280_temperature;BME280_humidity;BME280_pressure;Samples;Min_cycle;Max_cycle;Signal;HPM_P1;HPM_P2
2023/06/09 00:01:46;;;;;;;6.47;5.10;;;;;;;;;;5015766;28;20533;-48
2023/06/09 00:04:15;;;;;;;8.23;4.97;;;;;;;;;;5008019;28;20227;-48
2023/06/09 00:06:43;;;;;;;7.35;4.95;;;;;;;;;;5011006;28;20209;-48
2023/06/09 00:09:09;;;;;;;7.30;5.07;;;;;;;;;;5014173;28;20177;-48
2023/06/09 00:11:35;;;;;;;5.15;4.65;;;;;;;;;;5015592;28;20241;-48
2023/06/09 00:14:01;;;;;;;6.03;4.90;;;;;;;;;;5007155;28;20286;-48
2023/06/09 00:16:28;;;;;;;7.55;5.13;;;;;;;;;;5012359;28;20188;-49
2023/06/09 00:18:55;;;;;;;6.90;5.07;;;;;;;;;;5012512;28;20530;-48
2023/06/09 00:21:25;;;;;;;6.32;4.50;;;;;;;;;;5016617;28;20192;-48
2023/06/09 00:23:52;;;;;;;6.43;4.50;;;;;;;;;;5011809;28;20220;-48
2023/06/09 00:26:17;;;;;;;6.22;4.82;;;;;;;;;;5011807;28;20223;-49
2023/06/09 00:28:43;;;;;;;5.20;4.55;;;;;;;;;;5009183;28;20255;-48
2023/06/09 00:31:10;;;;;;;7.47;5.03;;;;;;;;;;5019337;28;20177;-48
2023/06/09 00:33:36;;;;;;;4.57;4.18;;;;;;;;;;5014710;28;20315;-48
2023/06/09 00:36:02;;;;;;;6.30;4.90;;;;;;;;;;5014681;28;20279;-48
2023/06/09 00:38:27;;;;;;;8.32;4.95;;;;;;;;;;5015665;28;20282;-49
2023/06/09 00:40:53;;;;;;;5.65;4.47;;;;;;;;;;5019708;28;20198;-48
2023/06/09 00:43:19;;;;;;;7.43;4.25;;;;;;;;;;5016105;28;20200;-48
2023/06/09 00:45:45;;;;;;;5.80;4.55;;;;;;;;;;5012016;28;20191;-49
2023/06/09 00:48:12;;;;;;;7.30;4.95;;;;;;;;;;5013908;28;20188;-48
2023/06/09 00:50:38;;;;;;;5.03;4.40;;;;;;;;;;5017477;28;20184;-48
2023/06/09 00:53:04;;;;;;;7.50;4.63;;;;;;;;;;5015692;28;20187;-48
2023/06/09 00:55:32;;;;;;;5.95;4.45;;;;;;;;;;5013476;28;20188;-48
2023/06/09 00:58:00;;;;;;;5.35;4.68;;;;;;;;;;5011269;28;20195;-48
2023/06/09 01:00:27;;;;;;;5.10;4.10;;;;;;;;;;5010719;28;20180;-48
2023/06/09 01:03:00;;;;;;;5.43;4.40;;;;;;;;;;5014676;28;20569;-48
2023/06/09 01:05:26;;;;;;;8.93;4.25;;;;;;;;;;5011988;28;20184;-49
2023/06/09 01:08:04;;;;;;;4.55;4.10;;;;;;;;;;5016133;28;20231;-48
2023/06/09 01:10:42;;;;;;;6.28;4.22;;;;;;;;;;5017271;28;20249;-48
2023/06/09 01:13:27;;;;;;;4.63;4.18;;;;;;;;;;5015771;28;20207;-48
2023/06/09 01:15:58;;;;;;;4.78;4.38;;;;;;;;;;5008713;28;20623;-48
2023/06/09 01:18:27;;;;;;;5.57;4.18;;;;;;;;;;5015205;28;20204;-48
2023/06/09 01:21:08;;;;;;;6.35;4.30;;;;;;;;;;5018121;28;20200;-48
2023/06/09 01:23:39;;;;;;;4.65;4.03;;;;;;;;;;5014443;28;20200;-48
2023/06/09 01:26:06;;;;;;;6.47;4.20;;;;;;;;;;5010624;28;20259;-48
2023/06/09 01:28:32;;;;;;;5.45;4.18;;;;;;;;;;5011928;28;20188;-48
2023/06/09 01:30:58;;;;;;;6.15;3.90;;;;;;;;;;5013574;28;20294;-48
2023/06/09 01:33:25;;;;;;;6.88;4.28;;;;;;;;;;5016103;28;20260;-48
2023/06/09 01:35:52;;;;;;;6.43;4.00;;;;;;;;;;5014820;28;20259;-48
2023/06/09 01:38:24;;;;;;;4.57;4.18;;;;;;;;;;5015411;28;20189;-48
2023/06/09 01:40:50;;;;;;;5.03;4.32;;;;;;;;;;5013230;28;20598;-48
2023/06/09 01:43:16;;;;;;;6.78;4.10;;;;;;;;;;5012864;28;20210;-48
2023/06/09 01:45:42;;;;;;;4.57;3.70;;;;;;;;;;5010372;28;20219;-48
2023/06/09 01:48:18;;;;;;;5.88;4.25;;;;;;;;;;5013465;28;20209;-48
2023/06/09 01:50:46;;;;;;;5.53;4.03;;;;;;;;;;5014704;28;20184;-48
2023/06/09 01:53:18;;;;;;;4.90;3.90;;;;;;;;;;5014459;28;20292;-48
2023/06/09 01:55:47;;;;;;;5.72;4.32;;;;;;;;;;5009803;28;20199;-48
2023/06/09 01:58:17;;;;;;;6.00;4.20;;;;;;;;;;5014722;28;20260;-48
2023/06/09 02:00:44;;;;;;;4.32;3.83;;;;;;;;;;5008145;28;20468;-48
2023/06/09 02:03:11;;;;;;;4.10;3.70;;;;;;;;;;5010349;28;20217;-48
2023/06/09 02:05:38;;;;;;;6.32;4.30;;;;;;;;;;5014116;28;20189;-48
2023/06/09 02:08:05;;;;;;;4.32;3.92;;;;;;;;;;5013764;28;20191;-48
2023/06/09 02:10:31;;;;;;;4.63;3.95;;;;;;;;;;5016776;28;20207;-48
2023/06/09 02:12:57;;;;;;;5.35;4.00;;;;;;;;;;5014549;28;20191;-48
2023/06/09 02:15:23;;;;;;;4.32;3.92;;;;;;;;;;5010209;28;20184;-48
2023/06/09 02:17:49;;;;;;;4.55;4.15;;;;;;;;;;5009316;28;20247;-48
2023/06/09 02:20:15;;;;;;;5.70;4.30;;;;;;;;;;5014713;28;20214;-48
2023/06/09 02:22:41;;;;;;;6.00;4.38;;;;;;;;;;5013737;28;21606;-48
2023/06/09 02:25:08;;;;;;;4.63;4.18;;;;;;;;;;5012227;28;20180;-48
2023/06/09 02:27:34;;;;;;;4.93;4.38;;;;;;;;;;5013446;28;20176;-48
2023/06/09 02:30:00;;;;;;;5.28;4.70;;;;;;;;;;5014654;28;20263;-48
2023/06/09 02:32:26;;;;;;;4.55;4.05;;;;;;;;;;5015715;28;20192;-48
2023/06/09 02:34:52;;;;;;;5.38;4.35;;;;;;;;;;5013716;28;20242;-48
2023/06/09 02:37:18;;;;;;;6.38;4.55;;;;;;;;;;5014690;28;20180;-48
2023/06/09 02:39:44;;;;;;;5.30;4.20;;;;;;;;;;5010887;28;20432;-48
2023/06/09 02:42:10;;;;;;;4.82;4.30;;;;;;;;;;5012381;28;20200;-48
2023/06/09 02:44:41;;;;;;;4.57;4.18;;;;;;;;;;5011555;28;20181;-49
2023/06/09 02:47:06;;;;;;;5.93;4.80;;;;;;;;;;5014165;28;20176;-48
2023/06/09 02:49:33;;;;;;;4.65;4.25;;;;;;;;;;5006187;28;20181;-48
2023/06/09 02:51:59;;;;;;;5.55;4.60;;;;;;;;;;5017409;28;20195;-48
2023/06/09 02:54:25;;;;;;;6.68;4.60;;;;;;;;;;5012695;28;20187;-48
2023/06/09 02:56:52;;;;;;;4.85;4.35;;;;;;;;;;5011909;28;20278;-48
2023/06/09 02:59:18;;;;;;;6.20;4.63;;;;;;;;;;5013084;28;20214;-48
2023/06/09 03:01:44;;;;;;;5.00;4.30;;;;;;;;;;5016030;28;20208;-48
2023/06/09 03:04:11;;;;;;;4.82;4.43;;;;;;;;;;5010166;28;20206;-48
2023/06/09 03:06:39;;;;;;;8.57;4.43;;;;;;;;;;5008221;28;20177;-48
2023/06/09 03:09:05;;;;;;;4.90;4.15;;;;;;;;;;5013006;28;20272;-48
2023/06/09 03:11:31;;;;;;;4.85;4.07;;;;;;;;;;5010089;28;20188;-48
2023/06/09 03:13:57;;;;;;;5.60;4.15;;;;;;;;;;5014085;28;20242;-48
2023/06/09 03:16:23;;;;;;;6.20;4.75;;;;;;;;;;5011394;28;20192;-48
2023/06/09 03:18:49;;;;;;;4.30;3.90;;;;;;;;;;5013452;28;20200;-48
2023/06/09 03:21:15;;;;;;;5.25;4.40;;;;;;;;;;5013621;28;20572;-48
2023/06/09 03:23:41;;;;;;;5.20;4.25;;;;;;;;;;5009958;28;20319;-48
2023/06/09 03:26:08;;;;;;;4.88;4.38;;;;;;;;;;5014208;28;20201;-48
2023/06/09 03:28:34;;;;;;;9.77;4.13;;;;;;;;;;5017828;28;20588;-48
2023/06/09 03:31:00;;;;;;;6.25;4.15;;;;;;;;;;5013557;28;20267;-48
2023/06/09 03:33:26;;;;;;;4.97;4.57;;;;;;;;;;5014304;28;20215;-48
2023/06/09 03:35:52;;;;;;;5.05;3.97;;;;;;;;;;5013626;28;20451;-48
2023/06/09 03:38:18;;;;;;;7.90;4.18;;;;;;;;;;5014169;28;20227;-48
2023/06/09 03:40:44;;;;;;;5.78;4.45;;;;;;;;;;5009058;28;20544;-49
2023/06/09 03:43:11;;;;;;;5.00;4.10;;;;;;;;;;5010095;28;20209;-49
2023/06/09 03:45:37;;;;;;;7.13;4.25;;;;;;;;;;5010833;28;20429;-49
2023/06/09 03:48:05;;;;;;;7.35;4.00;;;;;;;;;;5010444;28;20181;-49
2023/06/09 03:50:31;;;;;;;6.00;4.43;;;;;;;;;;5016293;28;20504;-49
2023/06/09 03:52:57;;;;;;;6.13;3.95;;;;;;;;;;5001976;28;20604;-48
2023/06/09 03:55:24;;;;;;;7.10;4.25;;;;;;;;;;5009410;28;20204;-49
2023/06/09 03:57:50;;;;;;;7.13;4.50;;;;;;;;;;5014032;28;20184;-48
2023/06/09 04:00:17;;;;;;;5.15;4.35;;;;;;;;;;5018687;28;20199;-49
2023/06/09 04:02:43;;;;;;;5.80;4.22;;;;;;;;;;5012960;28;20503;-49
2023/06/09 04:05:09;;;;;;;7.75;3.97;;;;;;;;;;5016176;28;20223;-49
2023/06/09 04:07:35;;;;;;;6.57;4.28;;;;;;;;;;5016995;28;20212;-48
2023/06/09 04:10:02;;;;;;;6.32;4.68;;;;;;;;;;5020011;28;20187;-49
2023/06/09 04:12:28;;;;;;;9.10;4.50;;;;;;;;;;5019516;28;20184;-49
2023/06/09 04:14:55;;;;;;;7.50;4.80;;;;;;;;;;5010789;28;20189;-49
2023/06/09 04:17:22;;;;;;;7.65;4.50;;;;;;;;;;5013698;28;20585;-49
2023/06/09 04:19:48;;;;;;;7.88;4.53;;;;;;;;;;5017245;28;20195;-49
2023/06/09 04:22:14;;;;;;;7.57;4.30;;;;;;;;;;5015852;28;20208;-49
2023/06/09 04:24:40;;;;;;;7.38;4.57;;;;;;;;;;5013585;28;20215;-49
2023/06/09 04:27:07;;;;;;;5.30;3.97;;;;;;;;;;5016867;28;20263;-49
2023/06/09 04:29:33;;;;;;;5.78;4.18;;;;;;;;;;5008308;28;20636;-49
2023/06/09 04:31:59;;;;;;;6.72;4.00;;;;;;;;;;5015077;28;20263;-49
2023/06/09 04:34:26;;;;;;;8.63;3.92;;;;;;;;;;5016286;28;20208;-49
2023/06/09 04:36:56;;;;;;;10.50;4.30;;;;;;;;;;5019959;28;20191;-48
2023/06/09 04:39:25;;;;;;;7.03;4.50;;;;;;;;;;5011528;28;20177;-49
2023/06/09 04:41:53;;;;;;;5.40;4.28;;;;;;;;;;5022958;28;20204;-49
2023/06/09 04:44:20;;;;;;;5.28;3.97;;;;;;;;;;5016458;28;20184;-49
2023/06/09 04:46:46;;;;;;;7.85;5.05;;;;;;;;;;5013712;28;20603;-49
2023/06/09 04:49:12;;;;;;;7.22;4.38;;;;;;;;;;5016114;28;20184;-48
2023/06/09 04:51:46;;;;;;;5.55;3.78;;;;;;;;;;5011970;28;20269;-49
2023/06/09 04:54:12;;;;;;;5.45;3.65;;;;;;;;;;5009560;28;20169;-49
2023/06/09 04:56:38;;;;;;;6.03;3.75;;;;;;;;;;5013923;28;20683;-49
2023/06/09 04:59:04;;;;;;;5.18;3.97;;;;;;;;;;5016099;28;20537;-49
2023/06/09 05:01:30;;;;;;;5.18;3.70;;;;;;;;;;5011670;28;20179;-49
2023/06/09 05:03:57;;;;;;;8.25;4.03;;;;;;;;;;5012402;28;20595;-49
2023/06/09 05:06:22;;;;;;;4.25;3.80;;;;;;;;;;5006457;28;20263;-49
2023/06/09 05:08:50;;;;;;;6.07;3.75;;;;;;;;;;5013108;28;20287;-49
2023/06/09 05:11:17;;;;;;;5.55;3.65;;;;;;;;;;5016252;28;20173;-49
2023/06/09 05:13:42;;;;;;;4.47;4.03;;;;;;;;;;5014323;28;20185;-49
2023/06/09 05:16:08;;;;;;;3.88;3.58;;;;;;;;;;5010736;28;20263;-49
2023/06/09 05:18:35;;;;;;;5.15;4.28;;;;;;;;;;5011240;28;20220;-49
2023/06/09 05:21:00;;;;;;;5.72;4.18;;;;;;;;;;5009415;28;20196;-49
2023/06/09 05:23:26;;;;;;;5.45;3.72;;;;;;;;;;5016641;28;20606;-49
2023/06/09 05:25:52;;;;;;;4.20;3.80;;;;;;;;;;5015561;28;20220;-49
2023/06/09 05:28:18;;;;;;;5.70;3.80;;;;;;;;;;5007641;28;20199;-49
2023/06/09 05:30:44;;;;;;;6.32;4.28;;;;;;;;;;5015504;28;20226;-49
2023/06/09 05:33:10;;;;;;;4.95;4.25;;;;;;;;;;5010604;28;20247;-49
2023/06/09 05:35:36;;;;;;;8.57;4.78;;;;;;;;;;5011678;28;20224;-49
2023/06/09 05:38:02;;;;;;;5.20;4.43;;;;;;;;;;5013280;28;20552;-49
2023/06/09 05:40:28;;;;;;;4.68;4.28;;;;;;;;;;5019595;28;20188;-49
2023/06/09 05:42:54;;;;;;;6.97;5.10;;;;;;;;;;5016100;28;20245;-49
2023/06/09 05:45:19;;;;;;;5.57;4.72;;;;;;;;;;5015569;28;20172;-49
2023/06/09 05:47:45;;;;;;;4.65;4.05;;;;;;;;;;5015282;28;20590;-49
2023/06/09 05:50:11;;;;;;;6.72;4.78;;;;;;;;;;5015704;28;20556;-49
2023/06/09 05:52:37;;;;;;;4.85;4.43;;;;;;;;;;5014145;28;20195;-49
2023/06/09 05:55:04;;;;;;;5.28;4.82;;;;;;;;;;5015565;28;20181;-49
2023/06/09 05:57:30;;;;;;;4.65;4.18;;;;;;;;;;5009706;28;20213;-49
2023/06/09 05:59:57;;;;;;;4.50;4.10;;;;;;;;;;5012861;28;20283;-49
2023/06/09 06:02:23;;;;;;;5.63;5.13;;;;;;;;;;5010689;28;20282;-49
2023/06/09 06:04:49;;;;;;;4.93;4.53;;;;;;;;;;5008851;28;20177;-49
2023/06/09 06:07:16;;;;;;;5.13;4.10;;;;;;;;;;5014444;28;20215;-48
2023/06/09 06:09:42;;;;;;;4.45;4.05;;;;;;;;;;5014776;28;20580;-50
2023/06/09 06:12:08;;;;;;;5.45;4.70;;;;;;;;;;5012117;28;20231;-49
2023/06/09 06:14:34;;;;;;;6.47;4.80;;;;;;;;;;5010892;28;20432;-50
2023/06/09 06:17:00;;;;;;;5.38;4.45;;;;;;;;;;5008688;28;20653;-49
2023/06/09 06:19:26;;;;;;;5.93;5.43;;;;;;;;;;5014212;28;20211;-50
2023/06/09 06:21:52;;;;;;;5.85;4.95;;;;;;;;;;5017477;28;20287;-49
2023/06/09 06:24:18;;;;;;;5.72;5.20;;;;;;;;;;5013873;28;20256;-49
2023/06/09 06:26:44;;;;;;;7.55;5.05;;;;;;;;;;5005993;28;20185;-49
2023/06/09 06:29:10;;;;;;;5.93;5.32;;;;;;;;;;5014784;28;20172;-49
2023/06/09 06:31:36;;;;;;;5.88;5.15;;;;;;;;;;5013575;28;20583;-49
2023/06/09 06:34:02;;;;;;;6.35;5.15;;;;;;;;;;5030608;28;20188;-49
2023/06/09 06:36:28;;;;;;;5.10;4.70;;;;;;;;;;5013816;28;20220;-49
2023/06/09 06:38:54;;;;;;;5.45;4.70;;;;;;;;;;5008739;28;20198;-49
2023/06/09 06:41:20;;;;;;;5.18;4.68;;;;;;;;;;5019384;28;20215;-49
2023/06/09 06:43:49;;;;;;;5.13;4.55;;;;;;;;;;5003537;28;20673;-49
2023/06/09 06:46:17;;;;;;;5.85;4.35;;;;;;;;;;5009127;28;20177;-49
2023/06/09 06:48:42;;;;;;;7.07;4.80;;;;;;;;;;5011883;28;20214;-49
2023/06/09 06:51:08;;;;;;;5.00;4.57;;;;;;;;;;5015068;28;20263;-49
2023/06/09 06:53:35;;;;;;;5.03;4.53;;;;;;;;;;5014377;28;20188;-49
2023/06/09 06:56:01;;;;;;;6.38;4.88;;;;;;;;;;5014038;28;20192;-49
2023/06/09 06:58:28;;;;;;;5.47;4.97;;;;;;;;;;5004764;28;20185;-49
2023/06/09 07:00:55;;;;;;;4.85;4.45;;;;;;;;;;5016796;28;20179;-49
2023/06/09 07:03:23;;;;;;;6.00;4.22;;;;;;;;;;5007556;28;20511;-49
2023/06/09 07:05:49;;;;;;;5.20;4.70;;;;;;;;;;5014557;28;20176;-49
2023/06/09 07:08:15;;;;;;;4.60;4.20;;;;;;;;;;5007939;28;20630;-49
2023/06/09 07:10:41;;;;;;;5.38;4.88;;;;;;;;;;5016364;28;20279;-49
2023/06/09 07:13:07;;;;;;;7.05;4.72;;;;;;;;;;5015221;28;20470;-49
2023/06/09 07:15:33;;;;;;;5.53;5.03;;;;;;;;;;5014082;28;20192;-49
2023/06/09 07:17:59;;;;;;;5.75;4.40;;;;;;;;;;5029491;28;20199;-49
2023/06/09 07:20:25;;;;;;;6.38;4.43;;;;;;;;;;5014091;28;20192;-49
2023/06/09 07:22:52;;;;;;;5.80;5.03;;;;;;;;;;5014310;28;20219;-49
2023/06/09 07:25:18;;;;;;;6.07;4.63;;;;;;;;;;5011795;28;20173;-49
2023/06/09 07:27:43;;;;;;;5.80;5.13;;;;;;;;;;5013351;28;20198;-49
2023/06/09 07:30:10;;;;;;;6.90;5.15;;;;;;;;;;5013639;28;20291;-49
2023/06/09 07:32:36;;;;;;;5.80;5.20;;;;;;;;;;5016842;28;20615;-49
2023/06/09 07:35:02;;;;;;;5.45;4.95;;;;;;;;;;5015944;28;20580;-49
2023/06/09 07:37:28;;;;;;;6.85;5.20;;;;;;;;;;5006689;28;20188;-49
2023/06/09 07:39:54;;;;;;;6.20;5.32;;;;;;;;;;5015845;28;20184;-49
2023/06/09 07:42:20;;;;;;;7.20;5.15;;;;;;;;;;5017921;28;20208;-49
2023/06/09 07:44:46;;;;;;;5.45;4.95;;;;;;;;;;5018350;28;20556;-49
2023/06/09 07:47:12;;;;;;;5.45;4.65;;;;;;;;;;5032024;28;20196;-49
2023/06/09 07:49:38;;;;;;;5.47;4.97;;;;;;;;;;5008618;28;20202;-49
2023/06/09 07:52:04;;;;;;;5.82;5.20;;;;;;;;;;5017053;28;20177;-49
2023/06/09 07:54:30;;;;;;;6.07;5.47;;;;;;;;;;5018216;28;20234;-49
2023/06/09 07:56:56;;;;;;;6.93;5.57;;;;;;;;;;5016704;28;20192;-49
2023/06/09 07:59:22;;;;;;;6.25;5.35;;;;;;;;;;5017980;28;20273;-49
2023/06/09 08:01:48;;;;;;;6.25;5.25;;;;;;;;;;5014366;28;20187;-49
2023/06/09 08:04:14;;;;;;;7.25;5.68;;;;;;;;;;5010028;28;20178;-49
2023/06/09 08:06:41;;;;;;;6.22;5.63;;;;;;;;;;5014084;28;20202;-49
2023/06/09 08:09:08;;;;;;;5.97;5.38;;;;;;;;;;5009891;28;20185;-49
2023/06/09 08:11:34;;;;;;;6.30;5.13;;;;;;;;;;5016861;28;20267;-49
2023/06/09 08:14:00;;;;;;;6.32;5.68;;;;;;;;;;5016501;28;20831;-49
2023/06/09 08:16:26;;;;;;;7.80;5.93;;;;;;;;;;5009403;28;20192;-50
2023/06/09 08:18:52;;;;;;;7.50;5.85;;;;;;;;;;5014209;28;20206;-49
2023/06/09 08:21:18;;;;;;;7.50;5.57;;;;;;;;;;5016741;28;20211;-49
2023/06/09 08:23:44;;;;;;;7.30;5.57;;;;;;;;;;5015262;28;20592;-49
2023/06/09 08:26:10;;;;;;;6.60;5.75;;;;;;;;;;5015120;28;20231;-49
2023/06/09 08:28:40;;;;;;;6.07;5.47;;;;;;;;;;5017023;28;20199;-49
2023/06/09 08:31:06;;;;;;;6.28;5.63;;;;;;;;;;5017340;28;20188;-49
2023/06/09 08:33:33;;;;;;;6.40;5.80;;;;;;;;;;5017424;28;20187;-49
2023/06/09 08:36:02;;;;;;;7.72;6.18;;;;;;;;;;5016887;28;20421;-49
2023/06/09 08:38:28;;;;;;;6.82;5.95;;;;;;;;;;5017396;28;20187;-49
2023/06/09 08:40:55;;;;;;;8.13;5.70;;;;;;;;;;5014702;28;20196;-49
2023/06/09 08:43:21;;;;;;;6.90;5.75;;;;;;;;;;5017799;28;20212;-49
2023/06/09 08:45:48;;;;;;;9.13;5.95;;;;;;;;;;5015566;28;20222;-49
2023/06/09 08:48:17;;;;;;;6.97;5.80;;;;;;;;;;5015308;28;20271;-49
2023/06/09 08:50:44;;;;;;;7.35;5.88;;;;;;;;;;5012026;28;20558;-49
2023/06/09 08:53:10;;;;;;;6.20;5.60;;;;;;;;;;5016475;28;20763;-49
2023/06/09 08:55:36;;;;;;;8.52;6.32;;;;;;;;;;5016082;28;20176;-49
2023/06/09 08:58:03;;;;;;;7.85;5.75;;;;;;;;;;5013982;28;20205;-49
2023/06/09 09:00:29;;;;;;;7.72;6.05;;;;;;;;;;5032860;28;20188;-49
2023/06/09 09:02:58;;;;;;;8.05;6.53;;;;;;;;;;5018914;28;20484;-49
2023/06/09 09:05:24;;;;;;;7.32;5.85;;;;;;;;;;5012182;28;20187;-49
2023/06/09 09:07:50;;;;;;;6.75;5.63;;;;;;;;;;5012649;28;20475;-49
2023/06/09 09:10:16;;;;;;;8.05;5.85;;;;;;;;;;5019086;28;20188;-49
2023/06/09 09:12:46;;;;;;;7.40;5.53;;;;;;;;;;5017643;28;20200;-49
2023/06/09 09:15:12;;;;;;;8.07;6.10;;;;;;;;;;5016102;28;20267;-49
2023/06/09 09:17:40;;;;;;;7.20;6.50;;;;;;;;;;5016389;28;20282;-49
2023/06/09 09:20:07;;;;;;;6.93;6.10;;;;;;;;;;5013574;28;20200;-49
2023/06/09 09:22:43;;;;;;;7.10;6.28;;;;;;;;;;5015792;28;20307;-49
2023/06/09 09:25:09;;;;;;;7.25;6.18;;;;;;;;;;5014472;28;20176;-49
2023/06/09 09:27:34;;;;;;;8.48;6.18;;;;;;;;;;5012094;28;20191;-49
2023/06/09 09:30:00;;;;;;;6.65;6.03;;;;;;;;;;5015022;28;20708;-49
2023/06/09 09:32:27;;;;;;;6.90;6.20;;;;;;;;;;5014850;28;20195;-49
2023/06/09 09:34:53;;;;;;;7.05;5.72;;;;;;;;;;5011751;28;20192;-49
2023/06/09 09:37:19;;;;;;;6.85;5.57;;;;;;;;;;5012435;28;20254;-49
2023/06/09 09:39:51;;;;;;;10.38;6.28;;;;;;;;;;5013296;28;20619;-49
2023/06/09 09:42:17;;;;;;;9.65;5.78;;;;;;;;;;5014547;28;20539;-49
2023/06/09 09:44:50;;;;;;;6.93;6.22;;;;;;;;;;5015548;28;20216;-49
2023/06/09 09:47:17;;;;;;;6.70;6.10;;;;;;;;;;5014783;28;20191;-48
2023/06/09 09:49:51;;;;;;;7.30;6.60;;;;;;;;;;5013743;28;20208;-48
2023/06/09 09:52:23;;;;;;;7.22;6.53;;;;;;;;;;5011601;28;20514;-48
2023/06/09 09:54:50;;;;;;;9.13;6.25;;;;;;;;;;5016090;28;20196;-48
2023/06/09 09:57:16;;;;;;;7.38;6.65;;;;;;;;;;5010275;28;20608;-48
2023/06/09 09:59:42;;;;;;;7.10;6.22;;;;;;;;;;5029716;28;20216;-48
2023/06/09 10:02:11;;;;;;;7.07;6.38;;;;;;;;;;5011049;28;20456;-48
2023/06/09 10:04:37;;;;;;;7.97;6.70;;;;;;;;;;5013384;28;20211;-48
2023/06/09 10:07:03;;;;;;;6.95;6.15;;;;;;;;;;5010845;28;20255;-49
2023/06/09 10:09:30;;;;;;;7.43;6.72;;;;;;;;;;5015315;28;20184;-49
2023/06/09 10:11:56;;;;;;;6.82;6.13;;;;;;;;;;5009004;28;20259;-49
2023/06/09 10:14:22;;;;;;;6.72;6.13;;;;;;;;;;5014661;28;20189;-49
2023/06/09 10:16:51;;;;;;;6.80;6.10;;;;;;;;;;5015226;28;20784;-49
2023/06/09 10:19:18;;;;;;;6.88;6.20;;;;;;;;;;5015846;28;20210;-49
2023/06/09 10:21:46;;;;;;;8.00;6.03;;;;;;;;;;5029723;28;20196;-49
2023/06/09 10:24:12;;;;;;;8.23;6.50;;;;;;;;;;5014714;28;20216;-49
2023/06/09 10:26:39;;;;;;;7.05;6.20;;;;;;;;;;5007788;28;20177;-49
2023/06/09 10:29:09;;;;;;;7.18;6.35;;;;;;;;;;5009317;28;20271;-49
2023/06/09 10:31:38;;;;;;;7.95;6.03;;;;;;;;;;5000193;28;20173;-49
2023/06/09 10:34:06;;;;;;;6.32;5.72;;;;;;;;;;5008564;28;20195;-49
2023/06/09 10:36:37;;;;;;;6.30;5.75;;;;;;;;;;5012002;28;20196;-49
2023/06/09 10:39:20;;;;;;;8.80;6.25;;;;;;;;;;5011980;28;20188;-49
2023/06/09 10:41:55;;;;;;;7.75;5.82;;;;;;;;;;5004640;28;20502;-49
2023/06/09 10:44:40;;;;;;;7.07;5.43;;;;;;;;;;5015319;28;20193;-49
2023/06/09 10:47:08;;;;;;;8.38;5.60;;;;;;;;;;5013260;28;20185;-49
2023/06/09 10:49:40;;;;;;;8.10;6.15;;;;;;;;;;5013142;28;20275;-48
2023/06/09 10:52:07;;;;;;;10.93;5.90;;;;;;;;;;5008840;28;20196;-48
2023/06/09 10:54:35;;;;;;;6.15;5.53;;;;;;;;;;5029174;28;20225;-49
2023/06/09 10:57:03;;;;;;;7.90;5.32;;;;;;;;;;5011123;28;20448;-49
2023/06/09 10:59:32;;;;;;;7.05;6.13;;;;;;;;;;5010277;28;20210;-49
2023/06/09 11:02:01;;;;;;;9.07;5.55;;;;;;;;;;5005885;28;20180;-49
2023/06/09 11:04:45;;;;;;;6.20;5.13;;;;;;;;;;5014646;28;20183;-49
2023/06/09 11:07:12;;;;;;;6.82;5.40;;;;;;;;;;5010304;28;20196;-50
2023/06/09 11:09:38;;;;;;;6.63;5.05;;;;;;;;;;5014374;28;20179;-49
2023/06/09 11:12:05;;;;;;;7.78;4.97;;;;;;;;;;5014237;28;20177;-49
2023/06/09 11:14:46;;;;;;;6.47;5.47;;;;;;;;;;5013310;28;20226;-49
2023/06/09 11:17:15;;;;;;;6.88;5.10;;;;;;;;;;5014601;28;20195;-49
2023/06/09 11:19:41;;;;;;;5.30;4.80;;;;;;;;;;5014744;28;20504;-49
2023/06/09 11:22:09;;;;;;;7.03;5.00;;;;;;;;;;5014418;28;20192;-49
2023/06/09 11:24:48;;;;;;;8.32;4.80;;;;;;;;;;5013728;28;20749;-49
2023/06/09 11:27:21;;;;;;;4.90;4.45;;;;;;;;;;5007022;28;20180;-50
2023/06/09 11:30:05;;;;;;;5.65;4.75;;;;;;;;;;5008179;28;20203;-49
2023/06/09 11:32:51;;;;;;;9.90;5.55;;;;;;;;;;5013067;28;20207;-49
2023/06/09 11:35:26;;;;;;;6.55;4.95;;;;;;;;;;5010604;28;20501;-49
2023/06/09 11:37:52;;;;;;;6.30;5.45;;;;;;;;;;5011227;28;20311;-50
2023/06/09 11:40:18;;;;;;;5.85;5.30;;;;;;;;;;5010883;28;20189;-50
2023/06/09 11:42:45;;;;;;;5.63;5.10;;;;;;;;;;5011010;28;20283;-49
2023/06/09 11:45:11;;;;;;;7.72;4.85;;;;;;;;;;5013825;28;20422;-47
2023/06/09 11:47:40;;;;;;;6.15;5.55;;;;;;;;;;5011836;28;20196;-48
2023/06/09 11:50:09;;;;;;;5.80;5.20;;;;;;;;;;5010032;28;20185;-50
2023/06/09 11:52:35;;;;;;;8.30;5.28;;;;;;;;;;5012876;28;20181;-48
2023/06/09 11:55:02;;;;;;;7.85;5.28;;;;;;;;;;5013914;28;20562;-48
2023/06/09 11:57:30;;;;;;;5.90;5.30;;;;;;;;;;5012012;28;20282;-48
2023/06/09 11:59:56;;;;;;;5.70;5.20;;;;;;;;;;5013193;28;20289;-47
2023/06/09 12:02:22;;;;;;;6.22;5.60;;;;;;;;;;5013825;28;20287;-47
2023/06/09 12:04:49;;;;;;;7.70;5.47;;;;;;;;;;5012688;28;20180;-47
2023/06/09 12:07:15;;;;;;;6.25;5.38;;;;;;;;;;5013939;28;20197;-48
2023/06/09 12:09:41;;;;;;;9.10;5.10;;;;;;;;;;5016299;28;20529;-48
2023/06/09 12:12:07;;;;;;;9.50;5.57;;;;;;;;;;5016085;28;20244;-48
2023/06/09 12:14:33;;;;;;;6.78;5.30;;;;;;;;;;5016364;28;20176;-48
2023/06/09 12:16:59;;;;;;;6.68;5.80;;;;;;;;;;5016177;28;20223;-48
2023/06/09 12:19:25;;;;;;;7.32;5.57;;;;;;;;;;5016010;28;20165;-48
2023/06/09 12:21:51;;;;;;;5.72;5.13;;;;;;;;;;5015988;28;20168;-48
2023/06/09 12:24:18;;;;;;;7.60;5.28;;;;;;;;;;5016326;28;20455;-48
2023/06/09 12:26:47;;;;;;;7.65;5.03;;;;;;;;;;5019534;28;20204;-48
2023/06/09 12:29:13;;;;;;;6.38;5.05;;;;;;;;;;5019769;28;20161;-48
2023/06/09 12:31:46;;;;;;;5.88;5.22;;;;;;;;;;5019557;28;20247;-48
2023/06/09 12:34:41;;;;;;;5.72;5.22;;;;;;;;;;5019668;28;20238;-48
2023/06/09 12:37:07;;;;;;;5.53;5.03;;;;;;;;;;5023522;28;20267;-48
2023/06/09 12:39:33;;;;;;;6.93;4.78;;;;;;;;;;5019473;28;20169;-48
2023/06/09 12:42:09;;;;;;;6.07;4.53;;;;;;;;;;5019251;28;20175;-48
2023/06/09 12:44:35;;;;;;;6.40;4.75;;;;;;;;;;5019566;28;20163;-48
2023/06/09 12:47:01;;;;;;;5.75;4.78;;;;;;;;;;5019375;28;20169;-48
2023/06/09 12:49:28;;;;;;;6.72;4.88;;;;;;;;;;5019425;28;20173;-48
2023/06/09 12:51:54;;;;;;;5.22;4.57;;;;;;;;;;5019316;28;20172;-48
2023/06/09 12:54:21;;;;;;;5.47;4.40;;;;;;;;;;5019407;28;20256;-48
2023/06/09 12:56:47;;;;;;;4.95;4.18;;;;;;;;;;5019259;28;20184;-48
2023/06/09 12:59:13;;;;;;;5.10;4.35;;;;;;;;;;5018950;28;20715;-48
2023/06/09 13:01:39;;;;;;;7.10;4.85;;;;;;;;;;5019116;28;20209;-48
2023/06/09 13:04:05;;;;;;;6.35;5.15;;;;;;;;;;5019186;28;20275;-48
2023/06/09 13:06:31;;;;;;;5.10;4.60;;;;;;;;;;5018996;28;20168;-48
2023/06/09 13:08:59;;;;;;;6.13;4.90;;;;;;;;;;5016608;28;20214;-48
2023/06/09 13:11:25;;;;;;;4.57;4.15;;;;;;;;;;5009077;28;20179;-48
2023/06/09 13:13:51;;;;;;;5.18;4.53;;;;;;;;;;5015897;28;20535;-48
2023/06/09 13:16:17;;;;;;;6.38;4.55;;;;;;;;;;5015424;28;20211;-48
2023/06/09 13:18:43;;;;;;;4.97;4.47;;;;;;;;;;5011871;28;20539;-48
2023/06/09 13:21:09;;;;;;;8.55;4.60;;;;;;;;;;5016184;28;20208;-48
2023/06/09 13:23:35;;;;;;;5.20;4.70;;;;;;;;;;5014781;28;20643;-48
2023/06/09 13:26:01;;;;;;;6.93;4.82;;;;;;;;;;5015502;28;20185;-48
2023/06/09 13:28:27;;;;;;;5.85;5.25;;;;;;;;;;5012311;28;20201;-48
2023/06/09 13:30:53;;;;;;;6.20;5.28;;;;;;;;;;5022732;28;20180;-48
2023/06/09 13:33:19;;;;;;;6.35;5.13;;;;;;;;;;5016282;28;20262;-48
2023/06/09 13:35:45;;;;;;;6.25;4.63;;;;;;;;;;5016140;28;20223;-49
2023/06/09 13:38:11;;;;;;;5.30;4.80;;;;;;;;;;5010254;28;20181;-48
2023/06/09 13:40:41;;;;;;;6.47;4.90;;;;;;;;;;5023071;28;20180;-48
2023/06/09 13:43:11;;;;;;;5.15;4.65;;;;;;;;;;5011637;28;20216;-48
2023/06/09 13:45:37;;;;;;;5.43;4.63;;;;;;;;;;5012989;28;20275;-48
2023/06/09 13:48:04;;;;;;;5.30;4.65;;;;;;;;;;5010977;28;20265;-48
2023/06/09 13:50:30;;;;;;;7.38;4.90;;;;;;;;;;5000581;28;20173;-48
2023/06/09 13:52:56;;;;;;;7.07;4.78;;;;;;;;;;5012504;28;20183;-49
2023/06/09 13:55:23;;;;;;;5.55;5.03;;;;;;;;;;5009561;28;20250;-48
2023/06/09 13:57:49;;;;;;;6.03;4.90;;;;;;;;;;5005214;28;21358;-48
2023/06/09 14:00:16;;;;;;;6.40;4.90;;;;;;;;;;5008485;28;20185;-48
2023/06/09 14:02:42;;;;;;;6.20;4.70;;;;;;;;;;5013490;28;20216;-48
2023/06/09 14:05:09;;;;;;;5.93;4.80;;;;;;;;;;5005391;28;20185;-47
2023/06/09 14:07:35;;;;;;;21.67;5.85;;;;;;;;;;5007618;28;20204;-47
2023/06/09 14:10:03;;;;;;;9.18;5.32;;;;;;;;;;5006989;28;20269;-47
2023/06/09 14:12:29;;;;;;;6.38;5.57;;;;;;;;;;5005843;28;20749;-47
2023/06/09 14:14:55;;;;;;;6.22;5.55;;;;;;;;;;5005675;28;20467;-47
2023/06/09 14:17:21;;;;;;;8.40;5.35;;;;;;;;;;5008835;28;20192;-47
2023/06/09 14:19:47;;;;;;;7.45;5.30;;;;;;;;;;5007261;28;20715;-47
2023/06/09 14:22:13;;;;;;;6.45;5.07;;;;;;;;;;5011450;28;20185;-47
2023/06/09 14:24:39;;;;;;;7.55;5.60;;;;;;;;;;5009205;28;20188;-47
2023/06/09 14:27:05;;;;;;;6.72;5.40;;;;;;;;;;5007218;28;20185;-47
2023/06/09 14:29:32;;;;;;;7.10;5.50;;;;;;;;;;5012180;28;20181;-47
2023/06/09 14:31:59;;;;;;;6.40;5.30;;;;;;;;;;5006449;28;20172;-47
2023/06/09 14:34:25;;;;;;;6.60;5.95;;;;;;;;;;5015426;28;20187;-47
2023/06/09 14:36:51;;;;;;;5.85;5.30;;;;;;;;;;5010978;28;20188;-47
2023/06/09 14:39:17;;;;;;;6.80;5.93;;;;;;;;;;5010261;28;20188;-47
2023/06/09 14:41:43;;;;;;;6.30;5.70;;;;;;;;;;5009967;28;20188;-47
2023/06/09 14:44:10;;;;;;;9.00;5.75;;;;;;;;;;5009635;28;20212;-47